• Join FlightAware (Why Join?)
  • Login
  • US Flag 
09:19PM EDT


 

Airport Tracker/Info


-or-


 

Live Flight TrackerFlight Track Log ✈ EJA142 ✈ 21-Feb-2014 ✈ KPBI - KPTK

Flight Track Log - Related Links

Times and Time Zones

All times are in EST time to prevent confusion due to time zone crossing. See the EJA142 flight status page for this flight to view local times or setup timezone preferences in your user account.

Time Position Orientation Groundspeed Altitude Reporting Facility
EST Latitude Longitude Course Direction KTS MPH feet Rate Location/Type
10:03AM 26.7678 -79.9792 339° North 298 343 6,300  Level Miami Center
10:04AM 26.8425 -79.9928 351° North 279 321 9,500 1,800 Climbing Miami Center
10:05AM 26.8594 -80.0794 282° West 220 253 10,000 720 Climbing Miami Center
10:06AM 26.8614 -80.1819 271° West 300 345 11,000 960 Climbing Miami Center
10:07AM 27.1015 -80.4459 339° North  Level FlightAware Approximate
10:07AM 26.8631 -80.2889 271° West 325 374 12,000  Level Miami Center
10:08AM 26.9239 -80.3583 315° West 316 364 13,400 1,800 Climbing Miami Center
10:09AM 27.0314 -80.4106 337° Northwest 369 425 15,700 2,100 Climbing Miami Center
10:10AM 27.1283 -80.4578 337° Northwest 377 434 17,600 1,740 Climbing Miami Center
10:11AM 27.2186 -80.5236 327° Northwest 377 434 19,200 1,800 Climbing Miami Center
10:12AM 27.3106 -80.5944 326° Northwest 387 445 21,200 2,040 Climbing Miami Center
10:13AM 27.4156 -80.6586 332° Northwest 405 466 23,300 2,040 Climbing Miami Center
10:14AM 27.5181 -80.7206 332° Northwest 417 480 25,300 1,980 Climbing Miami Center
10:15AM 27.6231 -80.7803 333° Northwest 417 480 27,300 1,860 Climbing Miami Center
10:16AM 27.7217 -80.8353 334° Northwest 423 487 29,100 1,860 Climbing Miami Center
10:17AM 27.8325 -80.9025 332° Northwest 430 495 31,100 1,920 Climbing Miami Center
10:18AM 27.9414 -80.9675 332° Northwest 435 501 33,000 2,100 Climbing Miami Center
10:19AM 28.0711 -81.0286 337° Northwest 451 519 35,400 2,160 Climbing Miami Center
10:20AM 28.1847 -81.0706 342° North 445 512 37,400 1,800 Climbing Miami Center
10:21AM 28.2917 -81.1194 338° Northwest 429 494 39,100 1,320 Climbing Miami Center
10:22AM 28.4011 -81.1589 342° North 413 475 40,100 960 Climbing Miami Center
10:23AM 28.5292 -81.2150 339° North 412 474 41,300 900 Climbing Jacksonville Center
10:24AM 28.6300 -81.2533 342° North 398 458 42,200 780 Climbing Jacksonville Center
10:25AM 28.7328 -81.2944 341° North 393 452 42,900 660 Climbing Jacksonville Center
10:26AM 28.8397 -81.3353 342° North 393 452 43,600 600 Climbing Jacksonville Center
10:27AM 28.9508 -81.3811 340° North 404 465 44,200 600 Climbing Jacksonville Center
10:28AM 29.0597 -81.4269 340° North 410 472 44,800 360 Climbing Jacksonville Center
10:29AM 29.1731 -81.4703 342° North 415 478 45,000 60 Climbing Jacksonville Center
10:30AM 29.2864 -81.5164 340° North 420 483 45,000  Level Jacksonville Center
10:31AM 29.4058 -81.5672 340° North 434 499 45,000  Level Jacksonville Center
10:32AM 29.5253 -81.6133 341° North 444 511 45,000  Level Jacksonville Center
10:33AM 29.6425 -81.6619 340° North 450 518 45,000  Level Jacksonville Center
10:34AM 29.7600 -81.7083 341° North 450 518 45,000  Level Jacksonville Center
10:35AM 29.8794 -81.7572 340° North 450 518 45,000  Level Jacksonville Center
10:36AM 29.9906 -81.8014 341° North 445 512 45,000 -60 Level Jacksonville Center
10:37AM 30.1056 -81.8433 342° North 440 506 44,900  Descending Jacksonville Center
10:38AM 30.2250 -81.8806 345° North 440 506 45,000  Climbing Jacksonville Center
10:39AM 30.3522 -81.8672 North 445 512 44,900 -60 Descending Jacksonville Center
10:40AM 30.4836 -81.8489 North 452 520 44,900  Level Jacksonville Center
10:41AM 30.6150 -81.8353 North 474 545 44,900  Level Jacksonville Center
10:42AM 30.7400 -81.8194 North 468 539 45,000  Climbing Jacksonville Center
10:43AM 30.8694 -81.8011 North 462 532 45,000  Level Jacksonville Center
10:44AM 30.9986 -81.7825 North 462 532 45,000  Level Jacksonville Center
10:45AM 31.1217 -81.7667 North 454 522 45,000  Level Jacksonville Center
10:46AM 31.2511 -81.7625 North 454 522 45,000  Level Jacksonville Center
10:47AM 31.3664 -81.7953 346° North 429 494 45,000  Level Jacksonville Center
10:49AM 31.6211 -81.8658 347° North 449 517 45,000  Level Atlanta Center
10:50AM 31.7383 -81.8997 346° North 449 517 45,000  Level Atlanta Center
10:51AM 31.8558 -81.9311 347° North 437 503 45,000  Level Atlanta Center
10:52AM 31.9756 -81.9650 346° North 432 497 45,000  Level Atlanta Center
10:53AM 32.1008 -81.9794 354° North 440 506 45,000  Level Atlanta Center
10:54AM 32.2222 -81.9936 354° North 440 506 45,000  Level Atlanta Center
10:55AM 32.3331 -82.0058 355° North 440 506 45,000  Level Atlanta Center
10:56AM 32.4586 -82.0203 354° North 446 513 45,000  Level Atlanta Center
10:57AM 32.5861 -82.0322 355° North 446 513 45,000  Level Atlanta Center
10:58AM 32.7136 -82.0489 354° North 452 520 45,000  Level Atlanta Center
10:59AM 32.8453 -82.0633 355° North 462 532 45,000  Level Atlanta Center
11:00AM 32.9897 -82.0797 355° North 472 543 45,000  Level Atlanta Center
11:01AM 33.1192 -82.0942 355° North 472 543 45,000  Level Atlanta Center
11:02AM 33.2531 -82.1111 354° North 472 543 45,000  Level Atlanta Center
11:03AM 33.3847 -82.1231 356° North 472 543 45,000  Level Atlanta Center
11:04AM 33.5186 -82.1400 354° North 477 549 45,000  Level Atlanta Center
11:05AM 33.6544 -82.1522 356° North 483 556 45,000  Level Atlanta Center
11:06AM 33.7964 -82.1464 North 488 562 45,000  Level Atlanta Center
11:07AM 33.9317 -82.1208 North 507 583 45,000  Level Atlanta Center
11:08AM 34.0731 -82.0978 North 515 593 45,000  Level Atlanta Center
11:09AM 34.2147 -82.0744 North 520 598 45,000  Level Atlanta Center
11:10AM 34.3525 -82.0761 359° North 513 590 45,000  Level Atlanta Center
11:11AM 34.4944 -82.0781 359° North 507 583 45,000  Level Atlanta Center
11:12AM 34.6342 -82.0797 359° North 502 578 45,000  Level Atlanta Center
11:13AM 34.7761 -82.0814 359° North 497 572 45,000  Level Atlanta Center
11:14AM 34.9161 -82.0833 359° North 497 572 45,000  Level Atlanta Center
11:15AM 35.0581 -82.0900 358° North 502 578 45,000  Level Atlanta Center
11:16AM 35.2019 -82.0892 360° North 502 578 45,000  Level Atlanta Center
11:17AM 35.3419 -82.0911 359° North 502 578 45,000  Level Atlanta Center
11:18AM 35.4858 -82.0953 359° North 502 578 45,000  Level Atlanta Center
11:19AM 35.6278 -82.0944 360° North 508 585 45,000  Level Atlanta Center
11:20AM 35.7717 -82.0961 359° North 508 585 45,000  Level Atlanta Center
11:21AM 35.9136 -82.0978 359° North 513 590 45,000  Level Atlanta Center
11:22AM 36.0575 -82.0969 360° North 513 590 45,000  Level Atlanta Center
11:23AM 36.1972 -82.0989 359° North 513 590 45,000  Level Atlanta Center
11:24AM 36.3369 -82.0981 360° North 505 581 45,000  Level Atlanta Center
11:25AM 36.4789 -82.0997 359° North 505 581 45,000  Level Atlanta Center
11:26AM 36.6228 -82.1014 359° North 510 587 45,000  Level Atlanta Center
11:28AM 36.8797 -82.1036 360° North 512 589 45,000  Level Indianapolis Center
11:29AM 37.0225 -82.1064 359° North 512 589 45,000  Level Indianapolis Center
11:30AM 37.1669 -82.1083 359° North 514 592 45,000  Level Indianapolis Center
11:31AM 37.3342 -82.1108 359° North 515 593 45,000  Level Indianapolis Center
11:32AM 37.4794 -82.1125 359° North 516 594 45,000  Level Indianapolis Center
11:33AM 37.6244 -82.1153 359° North 519 597 45,000  Level Indianapolis Center
11:34AM 37.7708 -82.1169 359° North 520 598 45,000  Level Indianapolis Center
11:35AM 37.9181 -82.1181 360° North 521 600 45,000  Level Indianapolis Center
11:36AM 38.0631 -82.1192 360° North 521 600 45,000  Level Indianapolis Center
11:37AM 38.2036 -82.1222 359° North 507 583 45,000  Level Indianapolis Center
11:38AM 38.3472 -82.1239 359° North 507 583 45,000  Level Indianapolis Center
11:39AM 38.5128 -82.1256 360° North 515 593 45,000  Level Indianapolis Center
11:40AM 38.6406 -82.1267 360° North 519 597 45,000  Level Indianapolis Center
11:41AM 38.7858 -82.1297 359° North 518 596 45,000 -60 Level Indianapolis Center
11:42AM 38.9294 -82.1297 360° North 516 594 44,900 -600 Descending Indianapolis Center
11:43AM 39.0689 -82.1308 360° North 504 580 43,800 -1,680 Descending Indianapolis Center
11:44AM 39.2333 -82.1339 359° North 495 570 41,500 -2,100 Descending Indianapolis Center
11:45AM 39.3761 -82.1361 359° North 499 574 39,500 -2,100 Descending Indianapolis Center
11:46AM 39.5286 -82.1383 359° North 531 611 37,300 -2,100 Descending Indianapolis Center
11:47AM 39.6797 -82.1389 360° North 540 621 35,200 -1,140 Descending Indianapolis Center
11:48AM 39.8317 -82.1411 359° North 542 624 35,000 -660 Descending Indianapolis Center
11:49AM 39.9878 -82.1433 359° North 554 638 33,900 -1,500 Descending Indianapolis Center
11:51AM 40.2381 -82.1464 359° North 566 651 31,000 -1,320 Descending Cleveland Center
11:52AM 40.4019 -82.1492 359° North 553 636 30,400 -1,020 Descending Cleveland Center
11:53AM 40.5483 -82.1508 360° North 526 605 29,000 -1,020 Descending Cleveland Center
11:54AM 40.6917 -82.1583 358° North 515 593 28,400 -1,080 Descending Cleveland Center
11:55AM 40.8183 -82.2103 343° North 474 545 26,900 -1,680 Descending Cleveland Center
11:56AM 40.9381 -82.2581 343° North 449 517 25,000 -1,920 Descending Cleveland Center
11:57AM 41.0533 -82.3039 343° North 431 496 23,100 -1,860 Descending Cleveland Center
11:58AM 41.1703 -82.3508 343° North 430 495 21,200 -1,800 Descending Cleveland Center
11:59AM 41.2814 -82.3961 343° North 416 479 19,500 -1,860 Descending Cleveland Center
12:00PM 41.4075 -82.4461 343° North 403 464 17,500 -1,800 Descending Cleveland Center
12:01PM 41.5106 -82.4883 343° North 387 445 15,900 -1,620 Descending Cleveland Center
12:02PM 41.6100 -82.5281 343° North 371 427 14,300 -1,800 Descending Cleveland Center
12:02PM 41.6353 -82.5389 342° North 363 418 13,600 -1,620 Descending Cleveland Center
12:03PM 41.6942 -82.5625 343° North 368 423 12,700 -1,740 Descending Cleveland Center
12:04PM 41.7553 -82.5878 343° North 362 417 11,500 -1,680 Descending Cleveland Center
12:04PM 41.7889 -82.6003 345° North 359 413 11,000 -1,380 Descending Cleveland Center
12:05PM 41.8550 -82.6286 342° North 335 386 10,000 -1,020 Descending Cleveland Center
12:05PM 41.8950 -82.6444 344° North 339 390 10,000  Level Cleveland Center
12:06PM 41.9233 -82.6683 328° Northwest 323 372 10,000 -120 Level Cleveland Center
12:06PM 41.9731 -82.6992 335° Northwest 321 369 9,900 -600 Descending Cleveland Center
12:07PM 42.0114 -82.7272 331° Northwest 274 315 9,300 -900 Descending Cleveland Center
12:07PM 42.0419 -82.7453 336° Northwest 289 333 9,000 -900 Descending Cleveland Center
12:08PM 42.0672 -82.7628 333° Northwest 279 321 8,600 -900 Descending Cleveland Center
12:08PM 42.1117 -82.7900 336° Northwest 283 326 8,100 -900 Descending Cleveland Center
12:09PM 42.1392 -82.8117 330° Northwest 272 313 7,700 -1,020 Descending Cleveland Center
12:09PM 42.1781 -82.8350 336° Northwest 275 316 7,100 -1,200 Descending Cleveland Center
12:10PM 42.2050 -82.8542 332° Northwest 268 308 6,500 -1,200 Descending Cleveland Center
12:10PM 42.2442 -82.8778 336° Northwest 269 310 5,900 -1,200 Descending Cleveland Center
12:11PM 42.2672 -82.8933 333° Northwest 263 303 5,400 -780 Descending Cleveland Center
12:11PM 42.3128 -82.9169 339° North 269 310 5,100 -420 Descending Cleveland Center
12:12PM 42.3378 -82.9311 337° Northwest 271 312 5,000 -120 Descending Cleveland Center
12:12PM 42.3811 -82.9531 339° North 269 310 5,000 -540 Level Cleveland Center
12:13PM 42.4042 -82.9656 338° Northwest 260 299 4,500 -1,200 Descending Cleveland Center
12:13PM 42.4594 -82.9939 339° North 256 295 3,800 -1,020 Descending Cleveland Center
12:14PM 42.4708 -83.0000 338° Northwest 240 276 3,500 -720 Descending Cleveland Center
12:14PM 42.5197 -83.0264 338° Northwest 241 277 3,100 -480 Descending Cleveland Center
12:15PM 42.5372 -83.0372 335° Northwest 215 247 3,000  Descending Cleveland Center
12:15PM 42.5747 -83.0558 340° North 223 257 3,100  Climbing Cleveland Center
12:16PM 42.5917 -83.0647 339° North 206 237 3,000  Descending Cleveland Center
12:16PM 42.6231 -83.0886 331° Northwest 208 239 3,100  Climbing Cleveland Center
12:17PM 42.6344 -83.1075 309° West 175 201 3,000  Descending Cleveland Center
12:17PM 42.6581 -83.1392 315° West 192 221 3,100  Climbing Cleveland Center
12:18PM 42.6683 -83.1603 304° West 183 211 3,000  Descending Cleveland Center
12:18PM 42.6719 -83.1992 277° West 184 212 3,100  Climbing Cleveland Center
12:19PM 42.6697 -83.2231 263° West 166 191 3,000  Descending Cleveland Center
12:20PM 42.6700 -83.2569 271° West 166 191 3,100  Climbing Cleveland Center
12:20PM 42.6681 -83.2739 261° West 137 158 3,000 -540 Descending Cleveland Center
12:21PM 42.6692 -83.3094 272° West 136 157 2,600 -540 Descending Cleveland Center
12:21PM 42.6669 -83.3133 232° Southwest 83 96 2,500 -540 Descending Cleveland Center
12:22PM 42.6675 -83.3436 271° West 106 122 2,100 -540 Descending Cleveland Center
12:22PM 42.6664 -83.3503 257° West 98 113 2,000 -600 Descending Cleveland Center
12:23PM 42.6667 -83.3797 271° West 98 113 1,500 -360 Descending Cleveland Center
12:24PM 42.6653 -83.4161 267° West 98 113 1,400 -120 Descending Cleveland Center